NKS1681 KFLL-KIND
Flight info
| Callsign | NKS1681 |
|---|---|
| Flight time | N/A |
| Altitude | 36000 |
| Route | HROCK2 KPASA Q118 THRSR Q79 SWAPP HAGAL GIIBS4 |
| Aircraft | A320/M-SDE3FGHIRWY/LB1 |
Departure
| Time | N/A |
|---|---|
| Airport | Fort Lauderdale Hollywood International Airport (KFLL) |
Arrival
| Time | 2026-05-04 02:01 |
|---|---|
| Airport | Indianapolis International Airport (KIND) |
| Time | Latitude | Longitude | Altitude | Speed | Heading |
|---|---|---|---|---|---|
| 2026-05-04 00:20 | 30.14325 | -83.28273 | 36113 ft | 437 kts | 325° |
| 2026-05-04 00:21 | 30.19942 | -83.30974 | 36123 ft | 438 kts | 325° |
| 2026-05-04 00:21 | 30.25574 | -83.33695 | 36155 ft | 438 kts | 326° |
| 2026-05-04 00:22 | 30.31208 | -83.36419 | 36144 ft | 438 kts | 326° |
| 2026-05-04 00:22 | 30.36838 | -83.39131 | 36146 ft | 439 kts | 326° |
| 2026-05-04 00:23 | 30.42442 | -83.41845 | 36144 ft | 439 kts | 326° |
| 2026-05-04 00:23 | 30.48068 | -83.44578 | 36147 ft | 439 kts | 326° |
| 2026-05-04 00:24 | 30.53703 | -83.47315 | 36147 ft | 439 kts | 326° |
| 2026-05-04 00:24 | 30.59337 | -83.50046 | 36144 ft | 438 kts | 326° |
| 2026-05-04 00:25 | 30.64968 | -83.52781 | 36147 ft | 439 kts | 326° |
| 2026-05-04 00:25 | 30.70596 | -83.55517 | 36161 ft | 439 kts | 326° |
| 2026-05-04 00:26 | 30.76223 | -83.58263 | 36156 ft | 438 kts | 326° |
| 2026-05-04 00:26 | 30.81845 | -83.61024 | 36162 ft | 439 kts | 326° |
| 2026-05-04 00:27 | 30.87470 | -83.63776 | 36132 ft | 438 kts | 326° |
| 2026-05-04 00:27 | 30.93093 | -83.66522 | 36128 ft | 439 kts | 326° |
| 2026-05-04 00:28 | 30.98723 | -83.69278 | 36130 ft | 439 kts | 326° |
| 2026-05-04 00:28 | 31.04358 | -83.72047 | 36135 ft | 440 kts | 326° |
| 2026-05-04 00:29 | 31.09959 | -83.74809 | 36169 ft | 440 kts | 326° |
| 2026-05-04 00:29 | 31.15608 | -83.77595 | 36156 ft | 441 kts | 327° |
| 2026-05-04 00:30 | 31.21269 | -83.80375 | 36151 ft | 441 kts | 327° |
| 2026-05-04 00:30 | 31.26907 | -83.83145 | 36138 ft | 441 kts | 327° |
| 2026-05-04 00:31 | 31.32560 | -83.85949 | 36140 ft | 441 kts | 326° |
| 2026-05-04 00:31 | 31.38209 | -83.88754 | 36173 ft | 441 kts | 327° |
| 2026-05-04 00:32 | 31.43868 | -83.91549 | 36161 ft | 441 kts | 327° |
| 2026-05-04 00:32 | 31.49535 | -83.94358 | 36146 ft | 442 kts | 328° |
| 2026-05-04 00:33 | 31.58659 | -83.97138 | 36141 ft | 459 kts | 340° |
| 2026-05-04 00:34 | 31.64928 | -83.98523 | 36133 ft | 459 kts | 340° |
| 2026-05-04 00:34 | 31.71202 | -83.99923 | 36149 ft | 459 kts | 340° |
| 2026-05-04 00:35 | 31.77477 | -84.01330 | 36141 ft | 459 kts | 340° |
| 2026-05-04 00:35 | 31.83753 | -84.02733 | 36131 ft | 459 kts | 340° |
| 2026-05-04 00:36 | 31.90031 | -84.04125 | 36133 ft | 459 kts | 341° |
| 2026-05-04 00:36 | 31.96268 | -84.05520 | 36143 ft | 459 kts | 341° |
| 2026-05-04 00:37 | 32.02547 | -84.06930 | 36130 ft | 459 kts | 341° |
| 2026-05-04 00:37 | 32.08821 | -84.08342 | 36120 ft | 459 kts | 341° |
| 2026-05-04 00:38 | 32.15108 | -84.09743 | 36107 ft | 459 kts | 341° |
| 2026-05-04 00:38 | 32.21384 | -84.11147 | 36145 ft | 459 kts | 341° |
| 2026-05-04 00:39 | 32.27646 | -84.12563 | 36111 ft | 457 kts | 341° |
| 2026-05-04 00:39 | 32.33857 | -84.13975 | 36114 ft | 457 kts | 341° |
| 2026-05-04 00:40 | 32.40113 | -84.15378 | 36120 ft | 457 kts | 341° |
| 2026-05-04 00:40 | 32.46358 | -84.16787 | 36117 ft | 456 kts | 341° |
| 2026-05-04 00:41 | 32.52596 | -84.18190 | 36129 ft | 456 kts | 342° |
| 2026-05-04 00:41 | 32.58825 | -84.19601 | 36120 ft | 456 kts | 342° |
| 2026-05-04 00:42 | 32.65061 | -84.21029 | 36126 ft | 456 kts | 342° |
| 2026-05-04 00:42 | 32.71295 | -84.22433 | 36134 ft | 456 kts | 342° |
| 2026-05-04 00:43 | 32.77530 | -84.23857 | 36167 ft | 455 kts | 342° |
| 2026-05-04 00:43 | 32.83750 | -84.25284 | 36166 ft | 455 kts | 342° |
| 2026-05-04 00:44 | 32.89927 | -84.26685 | 36163 ft | 454 kts | 342° |
| 2026-05-04 00:44 | 32.96141 | -84.28102 | 36162 ft | 454 kts | 342° |
| 2026-05-04 00:45 | 33.02344 | -84.29534 | 36170 ft | 453 kts | 343° |
| 2026-05-04 00:45 | 33.08509 | -84.30943 | 36150 ft | 449 kts | 344° |
| 2026-05-04 00:46 | 33.14645 | -84.32350 | 36157 ft | 448 kts | 344° |
| 2026-05-04 00:46 | 33.20762 | -84.33755 | 36167 ft | 447 kts | 344° |
| 2026-05-04 00:47 | 33.26869 | -84.35161 | 36178 ft | 446 kts | 344° |
| 2026-05-04 00:47 | 33.32970 | -84.36567 | 36181 ft | 446 kts | 344° |
| 2026-05-04 00:48 | 33.39055 | -84.37982 | 36137 ft | 445 kts | 344° |
| 2026-05-04 00:48 | 33.45107 | -84.39381 | 36135 ft | 445 kts | 344° |
| 2026-05-04 00:49 | 33.51189 | -84.40787 | 36135 ft | 445 kts | 344° |
| 2026-05-04 00:49 | 33.57273 | -84.42208 | 36161 ft | 444 kts | 345° |
| 2026-05-04 00:50 | 33.63328 | -84.43610 | 36153 ft | 443 kts | 345° |
| 2026-05-04 00:50 | 33.69347 | -84.44956 | 36147 ft | 442 kts | 345° |
| 2026-05-04 00:51 | 33.75389 | -84.46267 | 36143 ft | 441 kts | 345° |
| 2026-05-04 00:51 | 33.81426 | -84.47569 | 36142 ft | 440 kts | 345° |
| 2026-05-04 00:52 | 33.87446 | -84.48891 | 36120 ft | 439 kts | 345° |
| 2026-05-04 00:52 | 33.93451 | -84.50229 | 36116 ft | 438 kts | 345° |
| 2026-05-04 00:53 | 33.99443 | -84.51563 | 36150 ft | 437 kts | 345° |
| 2026-05-04 00:53 | 34.05425 | -84.52907 | 36148 ft | 437 kts | 344° |
| 2026-05-04 00:54 | 34.11368 | -84.54432 | 36165 ft | 435 kts | 343° |
| 2026-05-04 00:54 | 34.17281 | -84.56022 | 36148 ft | 434 kts | 343° |
| 2026-05-04 00:55 | 34.23144 | -84.57565 | 36152 ft | 434 kts | 343° |
| 2026-05-04 00:55 | 34.29049 | -84.59096 | 36148 ft | 434 kts | 343° |
| 2026-05-04 00:56 | 34.34952 | -84.60638 | 36150 ft | 433 kts | 343° |
| 2026-05-04 00:56 | 34.40858 | -84.62170 | 36156 ft | 433 kts | 343° |
| 2026-05-04 00:57 | 34.46750 | -84.63706 | 36134 ft | 433 kts | 343° |
| 2026-05-04 00:57 | 34.52634 | -84.65245 | 36128 ft | 432 kts | 343° |
| 2026-05-04 00:58 | 34.58512 | -84.66801 | 36134 ft | 432 kts | 343° |
| 2026-05-04 00:58 | 34.64391 | -84.68288 | 36155 ft | 431 kts | 343° |
| 2026-05-04 00:59 | 34.70264 | -84.69707 | 36149 ft | 430 kts | 343° |
| 2026-05-04 00:59 | 34.76112 | -84.71141 | 36145 ft | 428 kts | 343° |
| 2026-05-04 01:00 | 34.81915 | -84.72582 | 36143 ft | 428 kts | 343° |
| 2026-05-04 01:00 | 34.87747 | -84.74042 | 36133 ft | 428 kts | 343° |
| 2026-05-04 01:01 | 34.93570 | -84.75509 | 36153 ft | 427 kts | 343° |
| 2026-05-04 01:01 | 34.99396 | -84.76962 | 36137 ft | 426 kts | 343° |
| 2026-05-04 01:02 | 35.05204 | -84.78421 | 36125 ft | 426 kts | 343° |
| 2026-05-04 01:02 | 35.10028 | -84.79626 | 36120 ft | 425 kts | 343° |
| 2026-05-04 01:03 | 35.15834 | -84.81073 | 36123 ft | 425 kts | 343° |
| 2026-05-04 01:03 | 35.21635 | -84.82511 | 36114 ft | 425 kts | 343° |
| 2026-05-04 01:04 | 35.27421 | -84.83975 | 36110 ft | 424 kts | 342° |
| 2026-05-04 01:04 | 35.33199 | -84.85437 | 36107 ft | 424 kts | 343° |
| 2026-05-04 01:05 | 35.38979 | -84.86884 | 36108 ft | 424 kts | 343° |
| 2026-05-04 01:05 | 35.44759 | -84.88346 | 36133 ft | 423 kts | 342° |
| 2026-05-04 01:06 | 35.50523 | -84.89818 | 36134 ft | 423 kts | 342° |
| 2026-05-04 01:06 | 35.56287 | -84.91280 | 36136 ft | 423 kts | 342° |
| 2026-05-04 01:07 | 35.62046 | -84.92732 | 36127 ft | 422 kts | 342° |
| 2026-05-04 01:07 | 35.67797 | -84.94193 | 36157 ft | 422 kts | 342° |
| 2026-05-04 01:08 | 35.73549 | -84.95652 | 36145 ft | 422 kts | 342° |
| 2026-05-04 01:08 | 35.79297 | -84.97117 | 36142 ft | 421 kts | 342° |
| 2026-05-04 01:09 | 35.85043 | -84.98573 | 36140 ft | 421 kts | 342° |
| 2026-05-04 01:09 | 35.90741 | -85.00027 | 36127 ft | 421 kts | 342° |
| 2026-05-04 01:10 | 35.96477 | -85.01489 | 36126 ft | 421 kts | 342° |
| 2026-05-04 01:10 | 36.02213 | -85.02964 | 36125 ft | 421 kts | 342° |
| 2026-05-04 01:11 | 36.07951 | -85.04439 | 36128 ft | 421 kts | 342° |
| 2026-05-04 01:11 | 36.13686 | -85.05912 | 36139 ft | 420 kts | 342° |
| 2026-05-04 01:12 | 36.19399 | -85.07375 | 36133 ft | 417 kts | 342° |
| 2026-05-04 01:12 | 36.25086 | -85.08830 | 36133 ft | 417 kts | 342° |
| 2026-05-04 01:13 | 36.30768 | -85.10292 | 36139 ft | 417 kts | 342° |
| 2026-05-04 01:13 | 36.36446 | -85.11757 | 36134 ft | 417 kts | 342° |
| 2026-05-04 01:14 | 36.42117 | -85.13227 | 36153 ft | 416 kts | 341° |
| 2026-05-04 01:14 | 36.47787 | -85.14701 | 36139 ft | 416 kts | 342° |
| 2026-05-04 01:15 | 36.53455 | -85.16163 | 36129 ft | 416 kts | 341° |
| 2026-05-04 01:15 | 36.59122 | -85.17631 | 36125 ft | 415 kts | 341° |
| 2026-05-04 01:16 | 36.64735 | -85.19089 | 36125 ft | 415 kts | 341° |
| 2026-05-04 01:16 | 36.70378 | -85.20524 | 36113 ft | 412 kts | 341° |
| 2026-05-04 01:17 | 36.76007 | -85.21940 | 36106 ft | 412 kts | 341° |
| 2026-05-04 01:17 | 36.81629 | -85.23365 | 36107 ft | 412 kts | 341° |
| 2026-05-04 01:18 | 36.87249 | -85.24806 | 36105 ft | 412 kts | 341° |
| 2026-05-04 01:18 | 36.92864 | -85.26250 | 36132 ft | 412 kts | 341° |
| 2026-05-04 01:19 | 36.98476 | -85.27684 | 36119 ft | 412 kts | 341° |
| 2026-05-04 01:19 | 37.04061 | -85.29105 | 36108 ft | 411 kts | 341° |
| 2026-05-04 01:20 | 37.09658 | -85.30543 | 36096 ft | 411 kts | 341° |
| 2026-05-04 01:20 | 37.15260 | -85.31985 | 36130 ft | 410 kts | 341° |
| 2026-05-04 01:21 | 37.20810 | -85.33412 | 36084 ft | 407 kts | 341° |
| 2026-05-04 01:21 | 37.26356 | -85.34841 | 36078 ft | 407 kts | 341° |
| 2026-05-04 01:22 | 37.31909 | -85.36282 | 36079 ft | 408 kts | 341° |
| 2026-05-04 01:22 | 37.37477 | -85.37724 | 36077 ft | 408 kts | 341° |
| 2026-05-04 01:23 | 37.42992 | -85.39148 | 36079 ft | 405 kts | 341° |
| 2026-05-04 01:23 | 37.48518 | -85.40572 | 36071 ft | 405 kts | 341° |
| 2026-05-04 01:24 | 37.54035 | -85.42004 | 36063 ft | 405 kts | 341° |
| 2026-05-04 01:24 | 37.59562 | -85.43441 | 36051 ft | 405 kts | 341° |
| 2026-05-04 01:25 | 37.65067 | -85.44877 | 36067 ft | 403 kts | 341° |
| 2026-05-04 01:25 | 37.70545 | -85.46311 | 36050 ft | 402 kts | 340° |
| 2026-05-04 01:26 | 37.75984 | -85.47733 | 36056 ft | 402 kts | 341° |
| 2026-05-04 01:26 | 37.81499 | -85.49172 | 36051 ft | 402 kts | 340° |
| 2026-05-04 01:27 | 37.86941 | -85.50603 | 36093 ft | 402 kts | 340° |
| 2026-05-04 01:27 | 37.92399 | -85.52032 | 36034 ft | 400 kts | 340° |
| 2026-05-04 01:28 | 37.97852 | -85.53469 | 36034 ft | 400 kts | 340° |
| 2026-05-04 01:28 | 38.03283 | -85.54899 | 36033 ft | 401 kts | 340° |
| 2026-05-04 01:29 | 38.08751 | -85.56337 | 36035 ft | 401 kts | 340° |
| 2026-05-04 01:29 | 38.14218 | -85.57784 | 36058 ft | 401 kts | 340° |
| 2026-05-04 01:30 | 38.19712 | -85.59123 | 36010 ft | 407 kts | 345° |
| 2026-05-04 01:30 | 38.22495 | -85.59530 | 35307 ft | 411 kts | 345° |
| 2026-05-04 01:30 | 38.25345 | -85.59952 | 34468 ft | 413 kts | 345° |
| 2026-05-04 01:30 | 38.28234 | -85.60375 | 33688 ft | 411 kts | 345° |
| 2026-05-04 01:31 | 38.31012 | -85.60774 | 32658 ft | 404 kts | 345° |
| 2026-05-04 01:31 | 38.33770 | -85.61168 | 32201 ft | 395 kts | 345° |
| 2026-05-04 01:31 | 38.36488 | -85.61561 | 31673 ft | 391 kts | 345° |
| 2026-05-04 01:31 | 38.39177 | -85.61958 | 31147 ft | 388 kts | 345° |
| 2026-05-04 01:32 | 38.41852 | -85.62363 | 30617 ft | 385 kts | 345° |
| 2026-05-04 01:32 | 38.44507 | -85.62773 | 30088 ft | 383 kts | 344° |
| 2026-05-04 01:32 | 38.47145 | -85.63190 | 29503 ft | 380 kts | 344° |
| 2026-05-04 01:32 | 38.49757 | -85.63599 | 28981 ft | 376 kts | 344° |
| 2026-05-04 01:33 | 38.52342 | -85.63996 | 28454 ft | 373 kts | 345° |
| 2026-05-04 01:33 | 38.54907 | -85.64388 | 27954 ft | 370 kts | 345° |
| 2026-05-04 01:33 | 38.57454 | -85.64776 | 27477 ft | 368 kts | 345° |
| 2026-05-04 01:33 | 38.59994 | -85.65157 | 26946 ft | 367 kts | 344° |
| 2026-05-04 01:34 | 38.62524 | -85.65526 | 26451 ft | 365 kts | 345° |
| 2026-05-04 01:34 | 38.65049 | -85.65893 | 25959 ft | 364 kts | 345° |
| 2026-05-04 01:34 | 38.67561 | -85.66263 | 25506 ft | 363 kts | 344° |
| 2026-05-04 01:34 | 38.70037 | -85.66629 | 25048 ft | 362 kts | 345° |
| 2026-05-04 01:35 | 38.72535 | -85.66995 | 24584 ft | 361 kts | 345° |
| 2026-05-04 01:35 | 38.75030 | -85.67361 | 24139 ft | 361 kts | 345° |
| 2026-05-04 01:35 | 38.77522 | -85.67731 | 23693 ft | 360 kts | 345° |
| 2026-05-04 01:35 | 38.80014 | -85.68102 | 23200 ft | 359 kts | 345° |
| 2026-05-04 01:36 | 38.82484 | -85.68467 | 22764 ft | 356 kts | 345° |
| 2026-05-04 01:36 | 38.84939 | -85.68828 | 22302 ft | 354 kts | 345° |
| 2026-05-04 01:36 | 38.87369 | -85.69184 | 21858 ft | 350 kts | 345° |
| 2026-05-04 01:36 | 38.89787 | -85.69541 | 21381 ft | 347 kts | 345° |
| 2026-05-04 01:37 | 38.92183 | -85.69897 | 20925 ft | 345 kts | 345° |
| 2026-05-04 01:37 | 38.94559 | -85.70249 | 20447 ft | 343 kts | 345° |
| 2026-05-04 01:37 | 38.96918 | -85.70598 | 19975 ft | 340 kts | 345° |
| 2026-05-04 01:37 | 38.99260 | -85.70945 | 19490 ft | 338 kts | 345° |
| 2026-05-04 01:38 | 39.01590 | -85.71290 | 19020 ft | 335 kts | 345° |
| 2026-05-04 01:38 | 39.03893 | -85.71656 | 18564 ft | 331 kts | 345° |
| 2026-05-04 01:38 | 39.06168 | -85.72048 | 18162 ft | 328 kts | 345° |
| 2026-05-04 01:38 | 39.08391 | -85.72444 | 17734 ft | 324 kts | 344° |
| 2026-05-04 01:39 | 39.10614 | -85.72845 | 17305 ft | 322 kts | 345° |
| 2026-05-04 01:39 | 39.12834 | -85.73246 | 16907 ft | 322 kts | 345° |
| 2026-05-04 01:39 | 39.15023 | -85.73725 | 16509 ft | 317 kts | 339° |
| 2026-05-04 01:39 | 39.17061 | -85.74674 | 16085 ft | 308 kts | 329° |
| 2026-05-04 01:40 | 39.19008 | -85.75813 | 15700 ft | 307 kts | 330° |
| 2026-05-04 01:40 | 39.20969 | -85.76948 | 15310 ft | 308 kts | 330° |
| 2026-05-04 01:40 | 39.22916 | -85.78068 | 14919 ft | 306 kts | 330° |
| 2026-05-04 01:40 | 39.24854 | -85.79178 | 14529 ft | 304 kts | 330° |
| 2026-05-04 01:41 | 39.26779 | -85.80279 | 14142 ft | 302 kts | 330° |
| 2026-05-04 01:41 | 39.28701 | -85.81380 | 13768 ft | 302 kts | 331° |
| 2026-05-04 01:41 | 39.30625 | -85.82485 | 13338 ft | 302 kts | 331° |
| 2026-05-04 01:41 | 39.32530 | -85.83609 | 12947 ft | 300 kts | 327° |
| 2026-05-04 01:42 | 39.34235 | -85.85098 | 12572 ft | 294 kts | 318° |
| 2026-05-04 01:42 | 39.35820 | -85.86758 | 12200 ft | 292 kts | 317° |
| 2026-05-04 01:42 | 39.37396 | -85.88406 | 11823 ft | 291 kts | 317° |
| 2026-05-04 01:42 | 39.38948 | -85.90024 | 11456 ft | 289 kts | 317° |
| 2026-05-04 01:43 | 39.40509 | -85.91649 | 11092 ft | 288 kts | 317° |
| 2026-05-04 01:43 | 39.42061 | -85.93268 | 10724 ft | 286 kts | 317° |
| 2026-05-04 01:43 | 39.43601 | -85.94878 | 10363 ft | 283 kts | 317° |
| 2026-05-04 01:43 | 39.45110 | -85.96451 | 10217 ft | 272 kts | 317° |
| 2026-05-04 01:44 | 39.46558 | -85.97955 | 10092 ft | 262 kts | 318° |
| 2026-05-04 01:44 | 39.47979 | -85.99379 | 9890 ft | 256 kts | 318° |
| 2026-05-04 01:44 | 39.49386 | -86.00757 | 9753 ft | 253 kts | 319° |
| 2026-05-04 01:44 | 39.50796 | -86.02133 | 9442 ft | 253 kts | 319° |
| 2026-05-04 01:45 | 39.52198 | -86.03499 | 9081 ft | 252 kts | 319° |
| 2026-05-04 01:45 | 39.53602 | -86.04870 | 8685 ft | 253 kts | 319° |
| 2026-05-04 01:45 | 39.56414 | -86.07627 | 7915 ft | 254 kts | 318° |
| 2026-05-04 01:46 | 39.57825 | -86.09019 | 7531 ft | 255 kts | 318° |
| 2026-05-04 01:46 | 39.59236 | -86.10408 | 7195 ft | 254 kts | 317° |
| 2026-05-04 01:46 | 39.60516 | -86.11962 | 6807 ft | 250 kts | 309° |
| 2026-05-04 01:46 | 39.61727 | -86.13549 | 6462 ft | 249 kts | 309° |
| 2026-05-04 01:47 | 39.62926 | -86.15111 | 6357 ft | 239 kts | 309° |
| 2026-05-04 01:47 | 39.64080 | -86.16609 | 6243 ft | 229 kts | 309° |
| 2026-05-04 01:47 | 39.65187 | -86.18045 | 6138 ft | 220 kts | 310° |
| 2026-05-04 01:47 | 39.66514 | -86.19007 | 6031 ft | 226 kts | 343° |
| 2026-05-04 01:48 | 39.68053 | -86.18631 | 6014 ft | 233 kts | 26° |
| 2026-05-04 01:48 | 39.69285 | -86.17290 | 6022 ft | 231 kts | 36° |
| 2026-05-04 01:48 | 39.70052 | -86.16328 | 6017 ft | 231 kts | 38° |
| 2026-05-04 01:48 | 39.71179 | -86.14819 | 6016 ft | 235 kts | 44° |
| 2026-05-04 01:49 | 39.72209 | -86.13169 | 6017 ft | 235 kts | 46° |
| 2026-05-04 01:49 | 39.73228 | -86.11505 | 6012 ft | 236 kts | 46° |
| 2026-05-04 01:49 | 39.74250 | -86.09833 | 6027 ft | 237 kts | 46° |
| 2026-05-04 01:49 | 39.75299 | -86.08194 | 6018 ft | 235 kts | 43° |
| 2026-05-04 01:50 | 39.76392 | -86.06613 | 6013 ft | 235 kts | 40° |
| 2026-05-04 01:50 | 39.77529 | -86.05089 | 5994 ft | 234 kts | 38° |
| 2026-05-04 01:50 | 39.78695 | -86.03621 | 6000 ft | 233 kts | 37° |
| 2026-05-04 01:50 | 39.79869 | -86.02170 | 6002 ft | 233 kts | 36° |
| 2026-05-04 01:51 | 39.81045 | -86.00711 | 5997 ft | 235 kts | 37° |
| 2026-05-04 01:51 | 39.82219 | -85.99249 | 5901 ft | 232 kts | 37° |
| 2026-05-04 01:51 | 39.83446 | -85.97920 | 5586 ft | 225 kts | 18° |
| 2026-05-04 01:51 | 39.84879 | -85.97530 | 5263 ft | 202 kts | 340° |
| 2026-05-04 01:52 | 39.86062 | -85.98210 | 5048 ft | 174 kts | 311° |
| 2026-05-04 01:52 | 39.86928 | -85.99189 | 4992 ft | 155 kts | 302° |
| 2026-05-04 01:52 | 39.87605 | -86.00174 | 4977 ft | 138 kts | 298° |
| 2026-05-04 01:52 | 39.88198 | -86.01123 | 4980 ft | 131 kts | 288° |
| 2026-05-04 01:53 | 39.88533 | -86.02196 | 4997 ft | 132 kts | 277° |
| 2026-05-04 01:53 | 39.88741 | -86.03385 | 4995 ft | 137 kts | 274° |
| 2026-05-04 01:53 | 39.88923 | -86.04602 | 4996 ft | 137 kts | 274° |
| 2026-05-04 01:53 | 39.89104 | -86.05830 | 4998 ft | 139 kts | 274° |
| 2026-05-04 01:54 | 39.89273 | -86.07064 | 4999 ft | 138 kts | 268° |
| 2026-05-04 01:54 | 39.89089 | -86.08307 | 4996 ft | 141 kts | 243° |
| 2026-05-04 01:54 | 39.88444 | -86.09309 | 4959 ft | 146 kts | 229° |
| 2026-05-04 01:54 | 39.87731 | -86.10216 | 4855 ft | 140 kts | 228° |
| 2026-05-04 01:55 | 39.87044 | -86.11096 | 4696 ft | 137 kts | 228° |
| 2026-05-04 01:55 | 39.86364 | -86.11967 | 4527 ft | 137 kts | 227° |
| 2026-05-04 01:55 | 39.85684 | -86.12839 | 4347 ft | 138 kts | 227° |
| 2026-05-04 01:55 | 39.85004 | -86.13711 | 4159 ft | 138 kts | 228° |
| 2026-05-04 01:56 | 39.84325 | -86.14581 | 3980 ft | 136 kts | 227° |
| 2026-05-04 01:56 | 39.83650 | -86.15446 | 3794 ft | 136 kts | 226° |
| 2026-05-04 01:56 | 39.82977 | -86.16309 | 3608 ft | 137 kts | 226° |
| 2026-05-04 01:56 | 39.82303 | -86.17173 | 3436 ft | 135 kts | 226° |
| 2026-05-04 01:57 | 39.81634 | -86.18029 | 3268 ft | 135 kts | 226° |
| 2026-05-04 01:57 | 39.80966 | -86.18886 | 3082 ft | 134 kts | 226° |
| 2026-05-04 01:57 | 39.80298 | -86.19740 | 2901 ft | 135 kts | 225° |
| 2026-05-04 01:57 | 39.79640 | -86.20583 | 2723 ft | 135 kts | 224° |
| 2026-05-04 01:58 | 39.78974 | -86.21435 | 2551 ft | 134 kts | 224° |
| 2026-05-04 01:58 | 39.78312 | -86.22281 | 2393 ft | 132 kts | 224° |
| 2026-05-04 01:58 | 39.77656 | -86.23127 | 2193 ft | 132 kts | 224° |
| 2026-05-04 01:58 | 39.77025 | -86.23990 | 2045 ft | 132 kts | 225° |
| 2026-05-04 01:59 | 39.76378 | -86.24832 | 1828 ft | 131 kts | 219° |
| 2026-05-04 01:59 | 39.75703 | -86.25640 | 1600 ft | 134 kts | 216° |
| 2026-05-04 01:59 | 39.75029 | -86.26483 | 1349 ft | 134 kts | 221° |
| 2026-05-04 01:59 | 39.74374 | -86.27326 | 1190 ft | 132 kts | 217° |
| 2026-05-04 02:00 | 39.73720 | -86.28152 | 1045 ft | 130 kts | 221° |
| 2026-05-04 02:00 | 39.73078 | -86.28982 | 905 ft | 130 kts | 219° |
| 2026-05-04 02:00 | 39.72439 | -86.29796 | 800 ft | 128 kts | 217° |
| 2026-05-04 02:00 | 39.71894 | -86.30468 | 777 ft | 84 kts | 224° |
| 2026-05-04 02:01 | 39.71599 | -86.30840 | 780 ft | 34 kts | 224° |
| 2026-05-04 02:01 | 39.71532 | -86.30926 | 782 ft | 9 kts | 227° |
| 2026-05-04 02:01 | 39.71438 | -86.30995 | 781 ft | 18 kts | 199° |
| 2026-05-04 02:01 | 39.71309 | -86.30996 | 779 ft | 9 kts | 162° |
| 2026-05-04 02:02 | 39.71325 | -86.30911 | 779 ft | 18 kts | 48° |
| 2026-05-04 02:02 | 39.71438 | -86.30764 | 781 ft | 25 kts | 44° |
| 2026-05-04 02:02 | 39.71573 | -86.30591 | 779 ft | 29 kts | 45° |
| 2026-05-04 02:02 | 39.71708 | -86.30423 | 776 ft | 24 kts | 43° |
| 2026-05-04 02:03 | 39.71832 | -86.30261 | 777 ft | 26 kts | 45° |
| 2026-05-04 02:03 | 39.71859 | -86.30095 | 778 ft | 19 kts | 119° |
| 2026-05-04 02:03 | 39.71804 | -86.29963 | 783 ft | 16 kts | 88° |
| 2026-05-04 02:03 | 39.71774 | -86.29839 | 785 ft | 10 kts | 127° |
| 2026-05-04 02:04 | 39.71750 | -86.29801 | 786 ft | 1 kts | 131° |
| 2026-05-04 02:04 | 39.71748 | -86.29797 | 786 ft | 0 kts | 131° |